Aérodrome :
LOGIN :

S'inscrire | Disclaimer

   EN    FR    IT 

 










Légende :    VFR   VFR Marginal   IFR   IFR Intensif   IFR Très Intensif
Visi : 
Plafond : 
>= 8 km
>= 3000ft
5 à 8 km
1000 à 3000 ft
1500m à 5 km
500 à 1000 ft
800 à 1500m
200 à 500 ft
< 800m
< 200 ft
Symboles :   Orages  Brouillard  Fortes neiges  Fortes précipitations  Vent > 20 kt
SIGMETs :   Divers  Orages  Givrage  Turbulence  Onde Orograph.  Cendres Volcan.






- Altitude de l'aérodrome : 42 ft
- Code IATA : KGD


UMKK - Khrabrava - Kaliningrad

DERNIER METAR :
  • 100330Z 25002MPS 6000 0350E R24/0600D PRFG NSC 01/01 Q1023 R24/CLRD95 NOSIG RMK QFE766/1021

METARs EXPIRÉS :
  • 100300Z 25002MPS 6000 NSC 01/01 Q1022 R24/CLRD95 NOSIG RMK QFE766/1021
  • 100230Z 25003MPS 9000 NSC 00/M00 Q1022 R24/CLRD95 NOSIG RMK QFE765/1021
  • 100200Z 25003MPS CAVOK 01/00 Q1022 R24/CLRD95 NOSIG RMK QFE765/1021
  • 100100Z 25003MPS CAVOK 02/01 Q1022 R24/CLRD95 NOSIG RMK QFE765/1020

TAF TAF UMKK
Valide du 10 à 03h jusqu'au 11 à 03h UTC


100153Z 1003/1103 26003MPS 6000 SCT030
TEMPO 1003/1006 22003MPS 3100 BR SCT011
BECMG 1008/1010 32005G10MPS CAVOK
BECMG 1018/1020 27003G08MPS
TEMPO 1021/1103 3100 BR



MET'MAP, la Météo Aéronautique d'un coup d'oeil ! - Copyright ORBIFLY Décembre 2007 - Disclaimer

ORBIFLY MET'MAP TEAM :

Programmation & Développement : Alexandra Zaïnal
Sur une idée originale de : Baudouin d'Aumeries
Assistance à la programmation : Marc-Olivier Méhu
Soutien technique & logistique : Manuel Goepfert

Contact : metmap@orbifly.com




SOURCES & CREDITS :

   NOAA